Portada
METAR-TAF:

METAR-TAF

Aeropuertos :

Moscú-Sheremetyevo, Rusia

Aeropuerto Internacional de Moscú-Sheremétievo

latitud: 55-59N, longitud: 037-30E, altitud: 190 m

Observación

El informe se hizo hace 36 minutos, a las 20:00 UTC
Viento 4 kt del oeste
Temperatura 15°C
Humedad 77%
Presión 1011 hPa
Visibilidad 10 km o más
sin nubes por debajo de 1500 m y sin presencia de cumulonimbus.

METAR: UUEE 242000Z 26002MPS CAVOK 15/11 Q1011 R24R/CLRD62 R24L/CLRD62 NOSIG

Hora: 23:36 (20:36 UTC)

Pronóstico

El informe se hizo hace 43 minutos, a las 19:53 UTC
Pronóstico válido del 24 a las 21 UTC al 25 a las 21 UTC
Viento 6 kt del oeste-suroeste
Visibilidad 10 km o más
Nubes dispersas a una altura de 3000 ft
Evolucionando progresivamente
del 25 a las 12 UTC al 25 a las 14 UTC
Viento 6 kt del sur-sureste

TAF: UUEE 241953Z 2421/2521 25003MPS 9999 SCT030 TX23/2513Z TN12/2501Z BECMG 2512/2514 16003MPS

Observaciones y pronósticos meteorológicos de más de 4000 aeropuertos (mensajes METAR y TAF).

Los puntos amarillos y rojos representan las estaciones disponibles.

Ponga el ratón en el punto deseado para ver el nombre de la estación.

Haga clic para ver las observaciones y los pronósticos meteorológicos.

Para cambiar el mapa : haga clic en los botones verdes con una cruz de color negro para hacer un zoom, en el botón verde con un guión para alejar o en las flechas verdes para mapas adyacentes.


METAR-TAF: